sensor_id;sensor_type;location;lat;lon;timestamp;P1;durP1;ratioP1;P2;durP2;ratioP2
68583;SDS011;55557;49.220;11.150;2023-05-07T00:02:11;5.70;;;2.67;;
68583;SDS011;55557;49.220;11.150;2023-05-07T00:04:38;3.03;;;2.40;;
68583;SDS011;55557;49.220;11.150;2023-05-07T00:07:04;3.20;;;2.63;;
68583;SDS011;55557;49.220;11.150;2023-05-07T00:09:30;2.93;;;2.43;;
68583;SDS011;55557;49.220;11.150;2023-05-07T00:11:56;3.03;;;2.50;;
68583;SDS011;55557;49.220;11.150;2023-05-07T00:14:22;3.17;;;2.30;;
68583;SDS011;55557;49.220;11.150;2023-05-07T00:16:48;3.00;;;2.20;;
68583;SDS011;55557;49.220;11.150;2023-05-07T00:19:14;5.00;;;2.50;;
68583;SDS011;55557;49.220;11.150;2023-05-07T00:21:40;3.93;;;2.83;;
68583;SDS011;55557;49.220;11.150;2023-05-07T00:24:06;3.03;;;2.40;;
68583;SDS011;55557;49.220;11.150;2023-05-07T00:26:32;3.00;;;2.10;;
68583;SDS011;55557;49.220;11.150;2023-05-07T00:28:58;2.30;;;2.07;;
68583;SDS011;55557;49.220;11.150;2023-05-07T00:31:24;4.23;;;2.70;;
68583;SDS011;55557;49.220;11.150;2023-05-07T00:33:50;5.93;;;2.50;;
68583;SDS011;55557;49.220;11.150;2023-05-07T00:36:16;4.07;;;2.60;;
68583;SDS011;55557;49.220;11.150;2023-05-07T00:38:42;4.10;;;2.80;;
68583;SDS011;55557;49.220;11.150;2023-05-07T00:41:08;3.77;;;2.03;;
68583;SDS011;55557;49.220;11.150;2023-05-07T00:43:34;3.03;;;2.73;;
68583;SDS011;55557;49.220;11.150;2023-05-07T00:46:00;3.23;;;2.50;;
68583;SDS011;55557;49.220;11.150;2023-05-07T00:48:26;3.73;;;2.60;;
68583;SDS011;55557;49.220;11.150;2023-05-07T00:50:52;8.30;;;3.03;;
68583;SDS011;55557;49.220;11.150;2023-05-07T00:53:19;5.57;;;4.23;;
68583;SDS011;55557;49.220;11.150;2023-05-07T00:55:45;11.30;;;6.47;;
68583;SDS011;55557;49.220;11.150;2023-05-07T00:58:11;4.80;;;3.47;;
68583;SDS011;55557;49.220;11.150;2023-05-07T01:00:37;3.33;;;2.43;;
68583;SDS011;55557;49.220;11.150;2023-05-07T01:03:03;4.33;;;3.13;;
68583;SDS011;55557;49.220;11.150;2023-05-07T01:05:30;4.90;;;2.57;;
68583;SDS011;55557;49.220;11.150;2023-05-07T01:07:56;4.53;;;2.93;;
68583;SDS011;55557;49.220;11.150;2023-05-07T01:10:23;4.13;;;2.70;;
68583;SDS011;55557;49.220;11.150;2023-05-07T01:12:49;3.83;;;3.00;;
68583;SDS011;55557;49.220;11.150;2023-05-07T01:15:15;4.07;;;2.97;;
68583;SDS011;55557;49.220;11.150;2023-05-07T01:17:42;3.13;;;2.50;;
68583;SDS011;55557;49.220;11.150;2023-05-07T01:20:08;4.70;;;2.10;;
68583;SDS011;55557;49.220;11.150;2023-05-07T01:22:39;3.47;;;2.50;;
68583;SDS011;55557;49.220;11.150;2023-05-07T01:25:05;2.97;;;2.30;;
68583;SDS011;55557;49.220;11.150;2023-05-07T01:27:35;3.50;;;2.83;;
68583;SDS011;55557;49.220;11.150;2023-05-07T01:30:04;7.30;;;3.13;;
68583;SDS011;55557;49.220;11.150;2023-05-07T01:32:35;4.07;;;2.83;;
68583;SDS011;55557;49.220;11.150;2023-05-07T01:35:03;4.70;;;3.40;;
68583;SDS011;55557;49.220;11.150;2023-05-07T01:37:30;4.10;;;3.57;;
68583;SDS011;55557;49.220;11.150;2023-05-07T01:39:56;3.93;;;2.70;;
68583;SDS011;55557;49.220;11.150;2023-05-07T01:42:23;3.30;;;2.93;;
68583;SDS011;55557;49.220;11.150;2023-05-07T01:44:49;4.60;;;2.50;;
68583;SDS011;55557;49.220;11.150;2023-05-07T01:47:15;5.07;;;2.60;;
68583;SDS011;55557;49.220;11.150;2023-05-07T01:49:41;3.90;;;2.63;;
68583;SDS011;55557;49.220;11.150;2023-05-07T01:52:08;3.90;;;2.60;;
68583;SDS011;55557;49.220;11.150;2023-05-07T01:54:34;3.33;;;2.60;;
68583;SDS011;55557;49.220;11.150;2023-05-07T01:57:00;4.50;;;2.30;;
68583;SDS011;55557;49.220;11.150;2023-05-07T01:59:26;5.40;;;2.80;;
68583;SDS011;55557;49.220;11.150;2023-05-07T02:01:52;2.63;;;2.30;;
68583;SDS011;55557;49.220;11.150;2023-05-07T02:04:18;5.87;;;3.27;;
68583;SDS011;55557;49.220;11.150;2023-05-07T02:06:44;2.63;;;2.40;;
68583;SDS011;55557;49.220;11.150;2023-05-07T02:09:11;4.47;;;2.47;;
68583;SDS011;55557;49.220;11.150;2023-05-07T02:11:37;4.20;;;2.90;;
68583;SDS011;55557;49.220;11.150;2023-05-07T02:14:03;2.83;;;2.60;;
68583;SDS011;55557;49.220;11.150;2023-05-07T02:16:29;5.40;;;2.50;;
68583;SDS011;55557;49.220;11.150;2023-05-07T02:18:55;3.03;;;2.30;;
68583;SDS011;55557;49.220;11.150;2023-05-07T02:21:21;3.90;;;2.40;;
68583;SDS011;55557;49.220;11.150;2023-05-07T02:23:47;2.70;;;2.50;;
68583;SDS011;55557;49.220;11.150;2023-05-07T02:26:13;3.23;;;2.57;;
68583;SDS011;55557;49.220;11.150;2023-05-07T02:28:39;5.30;;;2.50;;
68583;SDS011;55557;49.220;11.150;2023-05-07T02:31:05;3.80;;;2.73;;
68583;SDS011;55557;49.220;11.150;2023-05-07T02:33:31;3.13;;;2.40;;
68583;SDS011;55557;49.220;11.150;2023-05-07T02:36:04;4.00;;;2.37;;
68583;SDS011;55557;49.220;11.150;2023-05-07T02:38:30;2.93;;;2.67;;
68583;SDS011;55557;49.220;11.150;2023-05-07T02:40:56;4.47;;;2.40;;
68583;SDS011;55557;49.220;11.150;2023-05-07T02:43:22;2.53;;;2.33;;
68583;SDS011;55557;49.220;11.150;2023-05-07T02:45:48;2.53;;;2.20;;
68583;SDS011;55557;49.220;11.150;2023-05-07T02:48:14;5.83;;;2.50;;
68583;SDS011;55557;49.220;11.150;2023-05-07T02:50:43;4.43;;;2.67;;
68583;SDS011;55557;49.220;11.150;2023-05-07T02:53:11;5.03;;;2.20;;
68583;SDS011;55557;49.220;11.150;2023-05-07T02:55:37;4.83;;;2.60;;
68583;SDS011;55557;49.220;11.150;2023-05-07T02:58:03;2.97;;;2.50;;
68583;SDS011;55557;49.220;11.150;2023-05-07T03:00:29;2.93;;;2.33;;
68583;SDS011;55557;49.220;11.150;2023-05-07T03:02:55;3.27;;;2.57;;
68583;SDS011;55557;49.220;11.150;2023-05-07T03:05:21;5.03;;;2.50;;
68583;SDS011;55557;49.220;11.150;2023-05-07T03:07:47;3.73;;;2.60;;
68583;SDS011;55557;49.220;11.150;2023-05-07T03:10:13;3.27;;;2.60;;
68583;SDS011;55557;49.220;11.150;2023-05-07T03:12:39;5.00;;;2.50;;
68583;SDS011;55557;49.220;11.150;2023-05-07T03:15:05;5.40;;;2.90;;
68583;SDS011;55557;49.220;11.150;2023-05-07T03:17:32;2.50;;;2.10;;
68583;SDS011;55557;49.220;11.150;2023-05-07T03:19:58;5.37;;;2.60;;
68583;SDS011;55557;49.220;11.150;2023-05-07T03:22:23;3.33;;;2.40;;
68583;SDS011;55557;49.220;11.150;2023-05-07T03:24:49;4.00;;;2.73;;
68583;SDS011;55557;49.220;11.150;2023-05-07T03:27:15;3.47;;;2.70;;
68583;SDS011;55557;49.220;11.150;2023-05-07T03:29:41;6.03;;;3.20;;
68583;SDS011;55557;49.220;11.150;2023-05-07T03:32:07;6.30;;;2.60;;
68583;SDS011;55557;49.220;11.150;2023-05-07T03:34:33;3.73;;;2.67;;
68583;SDS011;55557;49.220;11.150;2023-05-07T03:36:59;4.30;;;3.07;;
68583;SDS011;55557;49.220;11.150;2023-05-07T03:39:25;2.17;;;1.93;;
68583;SDS011;55557;49.220;11.150;2023-05-07T03:41:52;2.60;;;2.40;;
68583;SDS011;55557;49.220;11.150;2023-05-07T03:44:18;3.00;;;2.70;;
68583;SDS011;55557;49.220;11.150;2023-05-07T03:46:45;3.70;;;2.73;;
68583;SDS011;55557;49.220;11.150;2023-05-07T03:49:11;2.50;;;2.30;;
68583;SDS011;55557;49.220;11.150;2023-05-07T03:51:37;3.07;;;2.37;;
68583;SDS011;55557;49.220;11.150;2023-05-07T03:54:03;3.23;;;2.23;;
68583;SDS011;55557;49.220;11.150;2023-05-07T03:56:29;2.97;;;2.53;;
68583;SDS011;55557;49.220;11.150;2023-05-07T03:58:56;4.33;;;2.77;;
68583;SDS011;55557;49.220;11.150;2023-05-07T04:01:22;3.30;;;2.53;;
68583;SDS011;55557;49.220;11.150;2023-05-07T04:03:48;4.47;;;2.60;;
68583;SDS011;55557;49.220;11.150;2023-05-07T04:06:15;5.37;;;2.63;;
68583;SDS011;55557;49.220;11.150;2023-05-07T04:08:42;3.60;;;2.50;;
68583;SDS011;55557;49.220;11.150;2023-05-07T04:11:08;3.00;;;2.43;;
68583;SDS011;55557;49.220;11.150;2023-05-07T04:13:34;4.50;;;2.33;;
68583;SDS011;55557;49.220;11.150;2023-05-07T04:16:01;2.50;;;2.27;;
68583;SDS011;55557;49.220;11.150;2023-05-07T04:18:27;2.93;;;2.53;;
68583;SDS011;55557;49.220;11.150;2023-05-07T04:20:53;3.73;;;3.13;;
68583;SDS011;55557;49.220;11.150;2023-05-07T04:23:19;2.80;;;2.30;;
68583;SDS011;55557;49.220;11.150;2023-05-07T04:25:46;5.00;;;2.67;;
68583;SDS011;55557;49.220;11.150;2023-05-07T04:28:12;3.17;;;2.60;;
68583;SDS011;55557;49.220;11.150;2023-05-07T04:30:38;3.00;;;2.70;;
68583;SDS011;55557;49.220;11.150;2023-05-07T04:33:13;2.97;;;2.67;;
68583;SDS011;55557;49.220;11.150;2023-05-07T04:35:41;5.97;;;2.90;;
68583;SDS011;55557;49.220;11.150;2023-05-07T04:38:08;4.20;;;2.70;;
68583;SDS011;55557;49.220;11.150;2023-05-07T04:40:35;3.43;;;2.53;;
68583;SDS011;55557;49.220;11.150;2023-05-07T04:43:01;2.93;;;2.50;;
68583;SDS011;55557;49.220;11.150;2023-05-07T04:45:27;2.87;;;2.40;;
68583;SDS011;55557;49.220;11.150;2023-05-07T04:47:53;3.40;;;3.00;;
68583;SDS011;55557;49.220;11.150;2023-05-07T04:50:19;3.97;;;3.07;;
68583;SDS011;55557;49.220;11.150;2023-05-07T04:52:48;3.87;;;2.60;;
68583;SDS011;55557;49.220;11.150;2023-05-07T04:55:14;3.63;;;2.90;;
68583;SDS011;55557;49.220;11.150;2023-05-07T04:57:40;3.20;;;2.90;;
68583;SDS011;55557;49.220;11.150;2023-05-07T05:00:07;3.53;;;3.07;;
68583;SDS011;55557;49.220;11.150;2023-05-07T05:02:36;3.57;;;3.10;;
68583;SDS011;55557;49.220;11.150;2023-05-07T05:05:02;5.33;;;2.90;;
68583;SDS011;55557;49.220;11.150;2023-05-07T05:07:28;2.70;;;2.40;;
68583;SDS011;55557;49.220;11.150;2023-05-07T05:09:54;6.27;;;3.37;;
68583;SDS011;55557;49.220;11.150;2023-05-07T05:12:20;4.90;;;2.97;;
68583;SDS011;55557;49.220;11.150;2023-05-07T05:14:46;7.37;;;3.03;;
68583;SDS011;55557;49.220;11.150;2023-05-07T05:17:12;5.93;;;2.83;;
68583;SDS011;55557;49.220;11.150;2023-05-07T05:19:38;3.97;;;2.80;;
68583;SDS011;55557;49.220;11.150;2023-05-07T05:22:04;4.00;;;2.80;;
68583;SDS011;55557;49.220;11.150;2023-05-07T05:24:31;4.20;;;3.20;;
68583;SDS011;55557;49.220;11.150;2023-05-07T05:26:57;4.90;;;3.03;;
68583;SDS011;55557;49.220;11.150;2023-05-07T05:29:24;6.10;;;3.13;;
68583;SDS011;55557;49.220;11.150;2023-05-07T05:31:50;3.00;;;2.70;;
68583;SDS011;55557;49.220;11.150;2023-05-07T05:34:16;3.10;;;2.80;;
68583;SDS011;55557;49.220;11.150;2023-05-07T05:36:44;3.80;;;2.80;;
68583;SDS011;55557;49.220;11.150;2023-05-07T05:39:10;4.67;;;2.83;;
68583;SDS011;55557;49.220;11.150;2023-05-07T05:41:36;3.37;;;2.90;;
68583;SDS011;55557;49.220;11.150;2023-05-07T05:44:02;4.27;;;3.30;;
68583;SDS011;55557;49.220;11.150;2023-05-07T05:46:29;4.50;;;2.83;;
68583;SDS011;55557;49.220;11.150;2023-05-07T05:48:58;4.17;;;3.30;;
68583;SDS011;55557;49.220;11.150;2023-05-07T05:51:24;3.70;;;3.07;;
68583;SDS011;55557;49.220;11.150;2023-05-07T05:53:51;4.17;;;3.50;;
68583;SDS011;55557;49.220;11.150;2023-05-07T05:56:17;5.60;;;3.30;;
68583;SDS011;55557;49.220;11.150;2023-05-07T05:58:43;4.43;;;2.97;;
68583;SDS011;55557;49.220;11.150;2023-05-07T06:01:09;6.53;;;3.00;;
68583;SDS011;55557;49.220;11.150;2023-05-07T06:03:36;4.40;;;3.23;;
68583;SDS011;55557;49.220;11.150;2023-05-07T06:06:02;3.10;;;2.47;;
68583;SDS011;55557;49.220;11.150;2023-05-07T06:08:31;3.33;;;2.87;;
68583;SDS011;55557;49.220;11.150;2023-05-07T06:10:58;8.40;;;3.13;;
68583;SDS011;55557;49.220;11.150;2023-05-07T06:13:25;4.77;;;3.60;;
68583;SDS011;55557;49.220;11.150;2023-05-07T06:15:52;5.30;;;3.63;;
68583;SDS011;55557;49.220;11.150;2023-05-07T06:18:18;4.87;;;3.50;;
68583;SDS011;55557;49.220;11.150;2023-05-07T06:20:44;15.80;;;9.63;;
68583;SDS011;55557;49.220;11.150;2023-05-07T06:23:10;9.23;;;6.37;;
68583;SDS011;55557;49.220;11.150;2023-05-07T06:25:36;10.13;;;6.73;;
68583;SDS011;55557;49.220;11.150;2023-05-07T06:28:02;15.10;;;10.10;;
68583;SDS011;55557;49.220;11.150;2023-05-07T06:30:28;6.70;;;5.50;;
68583;SDS011;55557;49.220;11.150;2023-05-07T06:32:54;6.07;;;5.30;;
68583;SDS011;55557;49.220;11.150;2023-05-07T06:35:21;6.93;;;4.90;;
68583;SDS011;55557;49.220;11.150;2023-05-07T06:37:47;6.53;;;4.97;;
68583;SDS011;55557;49.220;11.150;2023-05-07T06:40:13;7.37;;;5.40;;
68583;SDS011;55557;49.220;11.150;2023-05-07T06:42:39;7.47;;;5.70;;
68583;SDS011;55557;49.220;11.150;2023-05-07T06:45:05;8.10;;;5.27;;
68583;SDS011;55557;49.220;11.150;2023-05-07T06:47:31;6.60;;;5.30;;
68583;SDS011;55557;49.220;11.150;2023-05-07T06:49:57;10.10;;;6.03;;
68583;SDS011;55557;49.220;11.150;2023-05-07T06:52:23;6.83;;;5.70;;
68583;SDS011;55557;49.220;11.150;2023-05-07T06:54:49;6.70;;;5.37;;
68583;SDS011;55557;49.220;11.150;2023-05-07T06:57:15;6.73;;;5.40;;
68583;SDS011;55557;49.220;11.150;2023-05-07T06:59:41;8.05;;;5.55;;
68583;SDS011;55557;49.220;11.150;2023-05-07T07:02:07;7.97;;;5.47;;
68583;SDS011;55557;49.220;11.150;2023-05-07T07:04:33;7.37;;;5.73;;
68583;SDS011;55557;49.220;11.150;2023-05-07T07:06:59;7.73;;;6.07;;
68583;SDS011;55557;49.220;11.150;2023-05-07T07:09:25;5.70;;;5.10;;
68583;SDS011;55557;49.220;11.150;2023-05-07T07:11:52;5.23;;;4.47;;
68583;SDS011;55557;49.220;11.150;2023-05-07T07:14:18;5.37;;;4.50;;
68583;SDS011;55557;49.220;11.150;2023-05-07T07:16:44;4.97;;;4.47;;
68583;SDS011;55557;49.220;11.150;2023-05-07T07:19:11;5.17;;;4.50;;
68583;SDS011;55557;49.220;11.150;2023-05-07T07:21:37;6.97;;;4.70;;
68583;SDS011;55557;49.220;11.150;2023-05-07T07:24:03;11.07;;;5.10;;
68583;SDS011;55557;49.220;11.150;2023-05-07T07:26:29;8.47;;;4.70;;
68583;SDS011;55557;49.220;11.150;2023-05-07T07:28:56;12.47;;;5.27;;
68583;SDS011;55557;49.220;11.150;2023-05-07T07:31:22;5.60;;;4.80;;
68583;SDS011;55557;49.220;11.150;2023-05-07T07:33:48;7.53;;;4.67;;
68583;SDS011;55557;49.220;11.150;2023-05-07T07:36:15;6.77;;;4.90;;
68583;SDS011;55557;49.220;11.150;2023-05-07T07:38:41;6.07;;;4.70;;
68583;SDS011;55557;49.220;11.150;2023-05-07T07:41:10;5.93;;;4.20;;
68583;SDS011;55557;49.220;11.150;2023-05-07T07:43:36;6.77;;;4.90;;
68583;SDS011;55557;49.220;11.150;2023-05-07T07:46:02;9.97;;;5.30;;
68583;SDS011;55557;49.220;11.150;2023-05-07T07:48:30;7.27;;;4.43;;
68583;SDS011;55557;49.220;11.150;2023-05-07T07:50:56;6.53;;;4.47;;
68583;SDS011;55557;49.220;11.150;2023-05-07T07:53:22;7.13;;;4.63;;
68583;SDS011;55557;49.220;11.150;2023-05-07T07:55:48;5.37;;;4.40;;
68583;SDS011;55557;49.220;11.150;2023-05-07T07:58:14;7.43;;;4.13;;
68583;SDS011;55557;49.220;11.150;2023-05-07T08:00:40;4.73;;;4.20;;
68583;SDS011;55557;49.220;11.150;2023-05-07T08:03:08;6.57;;;5.03;;
68583;SDS011;55557;49.220;11.150;2023-05-07T08:05:34;5.50;;;4.63;;
68583;SDS011;55557;49.220;11.150;2023-05-07T08:08:01;6.20;;;4.83;;
68583;SDS011;55557;49.220;11.150;2023-05-07T08:10:27;7.10;;;4.13;;
68583;SDS011;55557;49.220;11.150;2023-05-07T08:12:53;7.07;;;5.03;;
68583;SDS011;55557;49.220;11.150;2023-05-07T08:15:19;8.60;;;5.07;;
68583;SDS011;55557;49.220;11.150;2023-05-07T08:17:45;6.73;;;4.73;;
68583;SDS011;55557;49.220;11.150;2023-05-07T08:20:11;6.00;;;5.00;;
68583;SDS011;55557;49.220;11.150;2023-05-07T08:22:37;5.30;;;4.50;;
68583;SDS011;55557;49.220;11.150;2023-05-07T08:25:03;5.60;;;4.57;;
68583;SDS011;55557;49.220;11.150;2023-05-07T08:27:29;4.87;;;4.20;;
68583;SDS011;55557;49.220;11.150;2023-05-07T08:29:55;5.30;;;4.70;;
68583;SDS011;55557;49.220;11.150;2023-05-07T08:32:21;5.80;;;4.40;;
68583;SDS011;55557;49.220;11.150;2023-05-07T08:34:47;5.27;;;4.10;;
68583;SDS011;55557;49.220;11.150;2023-05-07T08:37:13;12.00;;;4.57;;
68583;SDS011;55557;49.220;11.150;2023-05-07T08:39:40;10.90;;;5.00;;
68583;SDS011;55557;49.220;11.150;2023-05-07T08:42:05;7.57;;;4.17;;
68583;SDS011;55557;49.220;11.150;2023-05-07T08:44:35;8.37;;;4.63;;
68583;SDS011;55557;49.220;11.150;2023-05-07T08:47:04;5.50;;;4.27;;
68583;SDS011;55557;49.220;11.150;2023-05-07T08:49:33;5.13;;;4.57;;
68583;SDS011;55557;49.220;11.150;2023-05-07T08:51:59;6.57;;;3.90;;
68583;SDS011;55557;49.220;11.150;2023-05-07T08:54:26;5.73;;;4.63;;
68583;SDS011;55557;49.220;11.150;2023-05-07T08:56:54;7.17;;;4.63;;
68583;SDS011;55557;49.220;11.150;2023-05-07T08:59:21;4.40;;;4.00;;
68583;SDS011;55557;49.220;11.150;2023-05-07T09:01:47;4.43;;;4.00;;
68583;SDS011;55557;49.220;11.150;2023-05-07T09:04:13;6.93;;;4.80;;
68583;SDS011;55557;49.220;11.150;2023-05-07T09:06:39;5.43;;;4.00;;
68583;SDS011;55557;49.220;11.150;2023-05-07T09:09:07;6.70;;;4.13;;
68583;SDS011;55557;49.220;11.150;2023-05-07T09:11:33;6.37;;;4.57;;
68583;SDS011;55557;49.220;11.150;2023-05-07T09:13:59;5.27;;;3.70;;
68583;SDS011;55557;49.220;11.150;2023-05-07T09:16:29;4.40;;;3.83;;
68583;SDS011;55557;49.220;11.150;2023-05-07T09:18:56;5.20;;;3.73;;
68583;SDS011;55557;49.220;11.150;2023-05-07T09:21:23;4.10;;;3.50;;
68583;SDS011;55557;49.220;11.150;2023-05-07T09:23:55;5.97;;;3.67;;
68583;SDS011;55557;49.220;11.150;2023-05-07T09:26:22;4.40;;;3.57;;
68583;SDS011;55557;49.220;11.150;2023-05-07T09:28:49;6.23;;;3.63;;
68583;SDS011;55557;49.220;11.150;2023-05-07T09:31:15;4.27;;;3.63;;
68583;SDS011;55557;49.220;11.150;2023-05-07T09:33:41;5.10;;;4.13;;
68583;SDS011;55557;49.220;11.150;2023-05-07T09:36:08;4.97;;;3.73;;
68583;SDS011;55557;49.220;11.150;2023-05-07T09:38:43;6.23;;;3.93;;
68583;SDS011;55557;49.220;11.150;2023-05-07T09:41:10;5.53;;;4.37;;
68583;SDS011;55557;49.220;11.150;2023-05-07T09:43:38;3.77;;;3.23;;
68583;SDS011;55557;49.220;11.150;2023-05-07T09:46:09;5.17;;;3.33;;
68583;SDS011;55557;49.220;11.150;2023-05-07T09:48:37;5.60;;;3.80;;
68583;SDS011;55557;49.220;11.150;2023-05-07T09:51:15;4.27;;;3.63;;
68583;SDS011;55557;49.220;11.150;2023-05-07T09:53:43;4.60;;;3.53;;
68583;SDS011;55557;49.220;11.150;2023-05-07T09:56:11;7.50;;;3.83;;
68583;SDS011;55557;49.220;11.150;2023-05-07T09:58:40;4.73;;;3.60;;
68583;SDS011;55557;49.220;11.150;2023-05-07T10:01:07;8.07;;;4.27;;
68583;SDS011;55557;49.220;11.150;2023-05-07T10:03:33;4.93;;;3.83;;
68583;SDS011;55557;49.220;11.150;2023-05-07T10:05:59;6.67;;;4.10;;
68583;SDS011;55557;49.220;11.150;2023-05-07T10:08:26;4.70;;;4.00;;
68583;SDS011;55557;49.220;11.150;2023-05-07T10:10:52;5.97;;;4.93;;
68583;SDS011;55557;49.220;11.150;2023-05-07T10:13:19;8.37;;;5.30;;
68583;SDS011;55557;49.220;11.150;2023-05-07T10:15:45;7.27;;;4.30;;
68583;SDS011;55557;49.220;11.150;2023-05-07T10:18:12;5.13;;;4.00;;
68583;SDS011;55557;49.220;11.150;2023-05-07T10:20:39;7.30;;;4.77;;
68583;SDS011;55557;49.220;11.150;2023-05-07T10:23:06;4.70;;;3.67;;
68583;SDS011;55557;49.220;11.150;2023-05-07T10:25:32;4.97;;;4.10;;
68583;SDS011;55557;49.220;11.150;2023-05-07T10:28:08;4.37;;;3.20;;
68583;SDS011;55557;49.220;11.150;2023-05-07T10:30:48;5.20;;;3.50;;
68583;SDS011;55557;49.220;11.150;2023-05-07T10:33:19;3.77;;;2.97;;
68583;SDS011;55557;49.220;11.150;2023-05-07T10:35:47;3.93;;;3.50;;
68583;SDS011;55557;49.220;11.150;2023-05-07T10:38:14;5.73;;;3.03;;
68583;SDS011;55557;49.220;11.150;2023-05-07T10:40:40;6.83;;;3.43;;
68583;SDS011;55557;49.220;11.150;2023-05-07T10:43:06;6.27;;;3.07;;
68583;SDS011;55557;49.220;11.150;2023-05-07T10:45:32;3.80;;;2.60;;
68583;SDS011;55557;49.220;11.150;2023-05-07T10:48:17;5.73;;;3.10;;
68583;SDS011;55557;49.220;11.150;2023-05-07T10:50:43;4.43;;;3.20;;
68583;SDS011;55557;49.220;11.150;2023-05-07T10:55:51;9.83;;;5.50;;
68583;SDS011;55557;49.220;11.150;2023-05-07T11:00:56;8.00;;;5.07;;
68583;SDS011;55557;49.220;11.150;2023-05-07T11:03:23;2.90;;;2.40;;
68583;SDS011;55557;49.220;11.150;2023-05-07T11:06:08;7.30;;;4.67;;
68583;SDS011;55557;49.220;11.150;2023-05-07T11:11:19;4.30;;;3.10;;
68583;SDS011;55557;49.220;11.150;2023-05-07T11:13:46;4.00;;;2.87;;
68583;SDS011;55557;49.220;11.150;2023-05-07T11:16:22;5.00;;;2.40;;
68583;SDS011;55557;49.220;11.150;2023-05-07T11:18:49;4.93;;;2.60;;
68583;SDS011;55557;49.220;11.150;2023-05-07T11:21:31;3.10;;;2.33;;
68583;SDS011;55557;49.220;11.150;2023-05-07T11:23:57;3.07;;;2.70;;
68583;SDS011;55557;49.220;11.150;2023-05-07T11:26:24;5.30;;;2.83;;
68583;SDS011;55557;49.220;11.150;2023-05-07T11:28:50;2.43;;;2.23;;
68583;SDS011;55557;49.220;11.150;2023-05-07T11:31:20;4.53;;;2.83;;
68583;SDS011;55557;49.220;11.150;2023-05-07T11:33:46;3.13;;;2.30;;
68583;SDS011;55557;49.220;11.150;2023-05-07T11:36:13;2.50;;;2.10;;
68583;SDS011;55557;49.220;11.150;2023-05-07T11:38:39;2.20;;;1.90;;
68583;SDS011;55557;49.220;11.150;2023-05-07T11:41:05;3.10;;;2.40;;
68583;SDS011;55557;49.220;11.150;2023-05-07T11:43:31;7.63;;;2.60;;
68583;SDS011;55557;49.220;11.150;2023-05-07T11:48:32;1.37;;;1.23;;
68583;SDS011;55557;49.220;11.150;2023-05-07T11:53:27;5.17;;;1.87;;
68583;SDS011;55557;49.220;11.150;2023-05-07T11:55:54;13.33;;;1.90;;
68583;SDS011;55557;49.220;11.150;2023-05-07T11:58:21;2.87;;;1.33;;
68583;SDS011;55557;49.220;11.150;2023-05-07T12:00:48;2.73;;;1.40;;
68583;SDS011;55557;49.220;11.150;2023-05-07T12:03:15;2.90;;;1.50;;
68583;SDS011;55557;49.220;11.150;2023-05-07T12:08:45;2.93;;;1.50;;
68583;SDS011;55557;49.220;11.150;2023-05-07T12:11:24;2.03;;;1.33;;
68583;SDS011;55557;49.220;11.150;2023-05-07T12:13:50;2.10;;;1.27;;
68583;SDS011;55557;49.220;11.150;2023-05-07T12:16:16;1.30;;;1.20;;
68583;SDS011;55557;49.220;11.150;2023-05-07T12:18:43;1.30;;;1.07;;
68583;SDS011;55557;49.220;11.150;2023-05-07T12:21:09;1.17;;;1.07;;
68583;SDS011;55557;49.220;11.150;2023-05-07T12:23:36;2.57;;;0.97;;
68583;SDS011;55557;49.220;11.150;2023-05-07T12:26:02;2.53;;;1.03;;
68583;SDS011;55557;49.220;11.150;2023-05-07T12:28:28;3.53;;;1.20;;
68583;SDS011;55557;49.220;11.150;2023-05-07T12:30:55;2.30;;;1.10;;
68583;SDS011;55557;49.220;11.150;2023-05-07T12:33:25;1.07;;;0.93;;
68583;SDS011;55557;49.220;11.150;2023-05-07T12:35:54;1.70;;;1.07;;
68583;SDS011;55557;49.220;11.150;2023-05-07T12:38:21;3.70;;;1.40;;
68583;SDS011;55557;49.220;11.150;2023-05-07T12:40:48;1.37;;;1.13;;
68583;SDS011;55557;49.220;11.150;2023-05-07T12:43:19;1.60;;;1.23;;
68583;SDS011;55557;49.220;11.150;2023-05-07T12:45:49;1.57;;;1.30;;
68583;SDS011;55557;49.220;11.150;2023-05-07T12:48:16;1.43;;;1.33;;
68583;SDS011;55557;49.220;11.150;2023-05-07T12:50:42;1.23;;;1.00;;
68583;SDS011;55557;49.220;11.150;2023-05-07T12:53:10;1.20;;;1.10;;
68583;SDS011;55557;49.220;11.150;2023-05-07T12:55:43;5.30;;;1.17;;
68583;SDS011;55557;49.220;11.150;2023-05-07T12:58:16;3.37;;;1.10;;
68583;SDS011;55557;49.220;11.150;2023-05-07T13:00:43;1.87;;;1.20;;
68583;SDS011;55557;49.220;11.150;2023-05-07T13:03:09;1.40;;;1.10;;
68583;SDS011;55557;49.220;11.150;2023-05-07T13:05:35;2.40;;;1.20;;
68583;SDS011;55557;49.220;11.150;2023-05-07T13:08:01;1.70;;;1.20;;
68583;SDS011;55557;49.220;11.150;2023-05-07T13:10:27;1.67;;;1.33;;
68583;SDS011;55557;49.220;11.150;2023-05-07T13:12:53;2.33;;;1.50;;
68583;SDS011;55557;49.220;11.150;2023-05-07T13:15:20;1.17;;;1.07;;
68583;SDS011;55557;49.220;11.150;2023-05-07T13:17:46;1.13;;;1.03;;
68583;SDS011;55557;49.220;11.150;2023-05-07T13:20:12;1.70;;;1.10;;
68583;SDS011;55557;49.220;11.150;2023-05-07T13:22:39;1.53;;;1.20;;
68583;SDS011;55557;49.220;11.150;2023-05-07T13:25:05;2.53;;;1.30;;
68583;SDS011;55557;49.220;11.150;2023-05-07T13:27:31;1.70;;;1.33;;
68583;SDS011;55557;49.220;11.150;2023-05-07T13:30:00;1.10;;;1.00;;
68583;SDS011;55557;49.220;11.150;2023-05-07T13:32:26;1.30;;;1.20;;
68583;SDS011;55557;49.220;11.150;2023-05-07T13:34:52;2.37;;;1.50;;
68583;SDS011;55557;49.220;11.150;2023-05-07T13:37:18;2.33;;;1.00;;
68583;SDS011;55557;49.220;11.150;2023-05-07T13:39:45;1.23;;;1.13;;
68583;SDS011;55557;49.220;11.150;2023-05-07T13:42:11;2.00;;;1.20;;
68583;SDS011;55557;49.220;11.150;2023-05-07T13:44:37;1.77;;;1.10;;
68583;SDS011;55557;49.220;11.150;2023-05-07T13:47:03;4.43;;;1.47;;
68583;SDS011;55557;49.220;11.150;2023-05-07T13:49:29;3.03;;;1.37;;
68583;SDS011;55557;49.220;11.150;2023-05-07T13:51:55;1.60;;;1.40;;
68583;SDS011;55557;49.220;11.150;2023-05-07T13:54:21;6.30;;;1.60;;
68583;SDS011;55557;49.220;11.150;2023-05-07T13:56:47;2.07;;;1.17;;
68583;SDS011;55557;49.220;11.150;2023-05-07T13:59:13;1.10;;;1.00;;
68583;SDS011;55557;49.220;11.150;2023-05-07T14:01:40;1.40;;;1.30;;
68583;SDS011;55557;49.220;11.150;2023-05-07T14:04:06;1.90;;;1.20;;
68583;SDS011;55557;49.220;11.150;2023-05-07T14:06:32;1.83;;;1.37;;
68583;SDS011;55557;49.220;11.150;2023-05-07T14:08:58;3.00;;;1.50;;
68583;SDS011;55557;49.220;11.150;2023-05-07T14:11:25;2.70;;;1.40;;
68583;SDS011;55557;49.220;11.150;2023-05-07T14:13:51;2.43;;;1.73;;
68583;SDS011;55557;49.220;11.150;2023-05-07T14:16:17;2.03;;;1.50;;
68583;SDS011;55557;49.220;11.150;2023-05-07T14:18:43;1.53;;;1.23;;
68583;SDS011;55557;49.220;11.150;2023-05-07T14:21:08;1.70;;;1.30;;
68583;SDS011;55557;49.220;11.150;2023-05-07T14:23:35;1.60;;;1.20;;
68583;SDS011;55557;49.220;11.150;2023-05-07T14:26:01;2.63;;;1.13;;
68583;SDS011;55557;49.220;11.150;2023-05-07T14:28:27;3.77;;;1.50;;
68583;SDS011;55557;49.220;11.150;2023-05-07T14:30:52;1.43;;;1.07;;
68583;SDS011;55557;49.220;11.150;2023-05-07T14:33:18;2.63;;;2.10;;
68583;SDS011;55557;49.220;11.150;2023-05-07T14:35:44;1.67;;;1.47;;
68583;SDS011;55557;49.220;11.150;2023-05-07T14:38:13;3.67;;;1.73;;
68583;SDS011;55557;49.220;11.150;2023-05-07T14:40:39;2.80;;;1.43;;
68583;SDS011;55557;49.220;11.150;2023-05-07T14:43:05;1.80;;;1.57;;
68583;SDS011;55557;49.220;11.150;2023-05-07T14:45:31;1.43;;;1.33;;
68583;SDS011;55557;49.220;11.150;2023-05-07T14:47:57;1.97;;;1.40;;